Manderson, Wyoming
Current Conditions -  °F | °C
As of 5:53 AM on Thursday 30 Oct 2014 (Local Time) from KGEY Reporting Station
Clear Clear  
Wind Chill: 30°   Ceiling: Unl
Heat Index: 30°   Visibility: 10mi
Dew Point: 21°   Wind: 0mph
Humidity: 69%   Direction: NA
Pressure: 30.3"   Gusts: NA
Location:  44.27°N, 107.96°W
Report Text: KGEY 301153Z AUTO 00000KT 10SM CLR M01/M06 A3030 RMK AO2 SLP268 T10111061 10039 21011 51013
Loading
Personal Weather Stations






























Interactive Weather Map
Tropical Storm Tracking
New forecast layout! Learn more

10-Day Weather Forecast

Advertisements
Track Severe Weather on mobile